sensor_id;sensor_type;location;lat;lon;timestamp;temperature;humidity
52415;DHT22;38340;52.964;6.086;2023-07-08T00:00:45;17.70;99.90
52415;DHT22;38340;52.964;6.086;2023-07-08T00:03:14;17.70;99.90
52415;DHT22;38340;52.964;6.086;2023-07-08T00:05:40;17.70;99.90
52415;DHT22;38340;52.964;6.086;2023-07-08T00:08:17;17.70;99.90
52415;DHT22;38340;52.964;6.086;2023-07-08T00:10:44;17.60;99.90
52415;DHT22;38340;52.964;6.086;2023-07-08T00:13:10;17.60;99.90
52415;DHT22;38340;52.964;6.086;2023-07-08T00:15:37;17.60;99.90
52415;DHT22;38340;52.964;6.086;2023-07-08T00:18:16;17.50;99.90
52415;DHT22;38340;52.964;6.086;2023-07-08T00:20:47;17.40;99.90
52415;DHT22;38340;52.964;6.086;2023-07-08T00:23:13;17.40;99.90
52415;DHT22;38340;52.964;6.086;2023-07-08T00:25:40;17.40;99.90
52415;DHT22;38340;52.964;6.086;2023-07-08T00:28:14;17.40;99.90
52415;DHT22;38340;52.964;6.086;2023-07-08T00:30:40;17.30;99.90
52415;DHT22;38340;52.964;6.086;2023-07-08T00:33:07;17.30;99.90
52415;DHT22;38340;52.964;6.086;2023-07-08T00:35:40;17.30;99.90
52415;DHT22;38340;52.964;6.086;2023-07-08T00:38:26;17.20;99.90
52415;DHT22;38340;52.964;6.086;2023-07-08T00:43:38;17.20;99.90
52415;DHT22;38340;52.964;6.086;2023-07-08T00:46:29;17.10;99.90
52415;DHT22;38340;52.964;6.086;2023-07-08T00:51:39;17.10;99.90
52415;DHT22;38340;52.964;6.086;2023-07-08T00:54:11;17.10;99.90
52415;DHT22;38340;52.964;6.086;2023-07-08T00:59:23;17.00;99.90
52415;DHT22;38340;52.964;6.086;2023-07-08T01:01:50;17.00;99.90
52415;DHT22;38340;52.964;6.086;2023-07-08T01:04:50;16.90;99.90
52415;DHT22;38340;52.964;6.086;2023-07-08T01:07:18;16.90;99.90
52415;DHT22;38340;52.964;6.086;2023-07-08T01:09:50;16.90;99.90
52415;DHT22;38340;52.964;6.086;2023-07-08T01:12:22;16.80;99.90
52415;DHT22;38340;52.964;6.086;2023-07-08T01:14:52;16.80;99.90
52415;DHT22;38340;52.964;6.086;2023-07-08T01:17:21;16.80;99.90
52415;DHT22;38340;52.964;6.086;2023-07-08T01:19:47;16.80;99.90
52415;DHT22;38340;52.964;6.086;2023-07-08T01:22:14;16.70;99.90
52415;DHT22;38340;52.964;6.086;2023-07-08T01:24:44;16.70;99.90
52415;DHT22;38340;52.964;6.086;2023-07-08T01:27:14;16.70;99.90
52415;DHT22;38340;52.964;6.086;2023-07-08T01:29:40;16.60;99.90
52415;DHT22;38340;52.964;6.086;2023-07-08T01:32:06;16.60;99.90
52415;DHT22;38340;52.964;6.086;2023-07-08T01:34:33;16.60;99.90
52415;DHT22;38340;52.964;6.086;2023-07-08T01:37:01;16.60;99.90
52415;DHT22;38340;52.964;6.086;2023-07-08T01:39:29;16.50;99.90
52415;DHT22;38340;52.964;6.086;2023-07-08T01:41:56;16.50;99.90
52415;DHT22;38340;52.964;6.086;2023-07-08T01:44:29;16.50;99.90
52415;DHT22;38340;52.964;6.086;2023-07-08T01:46:59;16.50;99.90
52415;DHT22;38340;52.964;6.086;2023-07-08T01:49:26;16.40;99.90
52415;DHT22;38340;52.964;6.086;2023-07-08T01:51:52;16.40;99.90
52415;DHT22;38340;52.964;6.086;2023-07-08T01:54:18;16.40;99.90
52415;DHT22;38340;52.964;6.086;2023-07-08T01:56:44;16.40;99.90
52415;DHT22;38340;52.964;6.086;2023-07-08T01:59:09;16.40;99.90
52415;DHT22;38340;52.964;6.086;2023-07-08T02:01:35;16.30;99.90
52415;DHT22;38340;52.964;6.086;2023-07-08T02:04:01;16.30;99.90
52415;DHT22;38340;52.964;6.086;2023-07-08T02:06:26;16.30;99.90
52415;DHT22;38340;52.964;6.086;2023-07-08T02:08:52;16.30;99.90
52415;DHT22;38340;52.964;6.086;2023-07-08T02:11:18;16.30;99.90
52415;DHT22;38340;52.964;6.086;2023-07-08T02:13:43;16.30;99.90
52415;DHT22;38340;52.964;6.086;2023-07-08T02:16:09;16.20;99.90
52415;DHT22;38340;52.964;6.086;2023-07-08T02:18:35;16.20;99.90
52415;DHT22;38340;52.964;6.086;2023-07-08T02:21:00;16.20;99.90
52415;DHT22;38340;52.964;6.086;2023-07-08T02:23:26;16.20;99.90
52415;DHT22;38340;52.964;6.086;2023-07-08T02:25:55;16.10;99.90
52415;DHT22;38340;52.964;6.086;2023-07-08T02:28:22;16.10;99.90
52415;DHT22;38340;52.964;6.086;2023-07-08T02:30:47;16.10;99.90
52415;DHT22;38340;52.964;6.086;2023-07-08T02:33:14;16.00;99.90
52415;DHT22;38340;52.964;6.086;2023-07-08T02:35:43;16.00;99.90
52415;DHT22;38340;52.964;6.086;2023-07-08T02:38:09;16.00;99.90
52415;DHT22;38340;52.964;6.086;2023-07-08T02:40:35;16.00;99.90
52415;DHT22;38340;52.964;6.086;2023-07-08T02:43:01;16.00;99.90
52415;DHT22;38340;52.964;6.086;2023-07-08T02:45:26;15.90;99.90
52415;DHT22;38340;52.964;6.086;2023-07-08T02:47:52;16.00;99.90
52415;DHT22;38340;52.964;6.086;2023-07-08T02:50:18;15.90;99.90
52415;DHT22;38340;52.964;6.086;2023-07-08T02:52:44;15.90;99.90
52415;DHT22;38340;52.964;6.086;2023-07-08T02:55:10;15.90;99.90
52415;DHT22;38340;52.964;6.086;2023-07-08T02:57:36;15.80;99.90
52415;DHT22;38340;52.964;6.086;2023-07-08T03:00:02;15.80;99.90
52415;DHT22;38340;52.964;6.086;2023-07-08T03:02:30;15.80;99.90
52415;DHT22;38340;52.964;6.086;2023-07-08T03:04:55;15.70;99.90
52415;DHT22;38340;52.964;6.086;2023-07-08T03:07:24;15.70;99.90
52415;DHT22;38340;52.964;6.086;2023-07-08T03:09:50;15.70;99.90
52415;DHT22;38340;52.964;6.086;2023-07-08T03:12:16;15.70;99.90
52415;DHT22;38340;52.964;6.086;2023-07-08T03:14:41;15.60;99.90
52415;DHT22;38340;52.964;6.086;2023-07-08T03:17:07;15.60;99.90
52415;DHT22;38340;52.964;6.086;2023-07-08T03:19:33;15.60;99.90
52415;DHT22;38340;52.964;6.086;2023-07-08T03:21:59;15.60;99.90
52415;DHT22;38340;52.964;6.086;2023-07-08T03:24:24;15.60;99.90
52415;DHT22;38340;52.964;6.086;2023-07-08T03:26:50;15.50;99.90
52415;DHT22;38340;52.964;6.086;2023-07-08T03:29:19;15.60;99.90
52415;DHT22;38340;52.964;6.086;2023-07-08T03:31:45;15.50;99.90
52415;DHT22;38340;52.964;6.086;2023-07-08T03:34:12;15.50;99.90
52415;DHT22;38340;52.964;6.086;2023-07-08T03:36:49;15.50;99.90
52415;DHT22;38340;52.964;6.086;2023-07-08T03:39:20;15.50;99.90
52415;DHT22;38340;52.964;6.086;2023-07-08T03:41:47;15.50;99.90
52415;DHT22;38340;52.964;6.086;2023-07-08T03:44:13;15.50;99.90
52415;DHT22;38340;52.964;6.086;2023-07-08T03:46:42;15.50;99.90
52415;DHT22;38340;52.964;6.086;2023-07-08T03:49:09;15.50;99.90
52415;DHT22;38340;52.964;6.086;2023-07-08T03:51:36;15.50;99.90
52415;DHT22;38340;52.964;6.086;2023-07-08T03:54:03;15.50;99.90
52415;DHT22;38340;52.964;6.086;2023-07-08T03:56:29;15.50;99.90
52415;DHT22;38340;52.964;6.086;2023-07-08T03:58:55;15.60;99.90
52415;DHT22;38340;52.964;6.086;2023-07-08T04:01:22;15.60;99.90
52415;DHT22;38340;52.964;6.086;2023-07-08T04:03:53;15.60;99.90
52415;DHT22;38340;52.964;6.086;2023-07-08T04:06:20;15.80;99.90
52415;DHT22;38340;52.964;6.086;2023-07-08T04:08:46;16.30;99.90
52415;DHT22;38340;52.964;6.086;2023-07-08T04:11:17;16.60;99.90
52415;DHT22;38340;52.964;6.086;2023-07-08T04:13:43;17.00;99.90
52415;DHT22;38340;52.964;6.086;2023-07-08T04:16:16;17.20;99.90
52415;DHT22;38340;52.964;6.086;2023-07-08T04:18:42;17.10;99.90
52415;DHT22;38340;52.964;6.086;2023-07-08T04:21:08;17.00;99.90
52415;DHT22;38340;52.964;6.086;2023-07-08T04:23:34;16.80;99.90
52415;DHT22;38340;52.964;6.086;2023-07-08T04:26:00;16.80;99.90
52415;DHT22;38340;52.964;6.086;2023-07-08T04:28:26;17.00;99.90
52415;DHT22;38340;52.964;6.086;2023-07-08T04:30:51;17.40;99.90
52415;DHT22;38340;52.964;6.086;2023-07-08T04:33:17;18.00;99.90
52415;DHT22;38340;52.964;6.086;2023-07-08T04:35:44;18.40;99.90
52415;DHT22;38340;52.964;6.086;2023-07-08T04:38:22;18.80;99.90
52415;DHT22;38340;52.964;6.086;2023-07-08T04:40:49;19.20;99.90
52415;DHT22;38340;52.964;6.086;2023-07-08T04:43:17;19.60;99.90
52415;DHT22;38340;52.964;6.086;2023-07-08T04:45:45;19.90;99.90
52415;DHT22;38340;52.964;6.086;2023-07-08T04:48:14;20.30;99.90
52415;DHT22;38340;52.964;6.086;2023-07-08T04:50:42;20.50;99.90
52415;DHT22;38340;52.964;6.086;2023-07-08T04:53:08;20.70;99.90
52415;DHT22;38340;52.964;6.086;2023-07-08T04:55:49;20.90;99.90
52415;DHT22;38340;52.964;6.086;2023-07-08T04:58:16;21.10;99.90
52415;DHT22;38340;52.964;6.086;2023-07-08T05:00:41;21.30;99.90
52415;DHT22;38340;52.964;6.086;2023-07-08T05:03:07;21.40;99.90
52415;DHT22;38340;52.964;6.086;2023-07-08T05:05:33;21.60;99.90
52415;DHT22;38340;52.964;6.086;2023-07-08T05:07:58;21.80;99.90
52415;DHT22;38340;52.964;6.086;2023-07-08T05:10:24;22.00;99.90
52415;DHT22;38340;52.964;6.086;2023-07-08T05:12:50;22.30;99.90
52415;DHT22;38340;52.964;6.086;2023-07-08T05:15:16;22.40;99.90
52415;DHT22;38340;52.964;6.086;2023-07-08T05:17:42;22.60;99.90
52415;DHT22;38340;52.964;6.086;2023-07-08T05:20:09;22.80;99.90
52415;DHT22;38340;52.964;6.086;2023-07-08T05:22:36;23.00;99.90
52415;DHT22;38340;52.964;6.086;2023-07-08T05:25:02;23.20;99.90
52415;DHT22;38340;52.964;6.086;2023-07-08T05:27:28;23.30;99.90
52415;DHT22;38340;52.964;6.086;2023-07-08T05:29:54;23.40;99.90
52415;DHT22;38340;52.964;6.086;2023-07-08T05:32:20;23.40;99.90
52415;DHT22;38340;52.964;6.086;2023-07-08T05:34:46;23.40;99.90
52415;DHT22;38340;52.964;6.086;2023-07-08T05:37:13;23.60;99.90
52415;DHT22;38340;52.964;6.086;2023-07-08T05:39:39;23.70;99.90
52415;DHT22;38340;52.964;6.086;2023-07-08T05:42:05;23.60;99.90
52415;DHT22;38340;52.964;6.086;2023-07-08T05:44:32;23.50;99.90
52415;DHT22;38340;52.964;6.086;2023-07-08T05:46:57;23.50;99.90
52415;DHT22;38340;52.964;6.086;2023-07-08T05:49:23;23.30;99.90
52415;DHT22;38340;52.964;6.086;2023-07-08T05:51:49;23.10;99.90
52415;DHT22;38340;52.964;6.086;2023-07-08T05:54:14;23.00;99.90
52415;DHT22;38340;52.964;6.086;2023-07-08T05:56:40;22.80;99.90
52415;DHT22;38340;52.964;6.086;2023-07-08T05:59:06;22.70;99.90
52415;DHT22;38340;52.964;6.086;2023-07-08T06:01:32;22.50;99.90
52415;DHT22;38340;52.964;6.086;2023-07-08T06:03:58;22.30;99.90
52415;DHT22;38340;52.964;6.086;2023-07-08T06:06:25;22.20;99.90
52415;DHT22;38340;52.964;6.086;2023-07-08T06:08:51;22.00;99.90
52415;DHT22;38340;52.964;6.086;2023-07-08T06:11:17;21.90;99.90
52415;DHT22;38340;52.964;6.086;2023-07-08T06:13:43;21.90;99.90
52415;DHT22;38340;52.964;6.086;2023-07-08T06:16:09;21.70;99.90
52415;DHT22;38340;52.964;6.086;2023-07-08T06:18:35;21.70;99.90
52415;DHT22;38340;52.964;6.086;2023-07-08T06:21:01;21.70;99.90
52415;DHT22;38340;52.964;6.086;2023-07-08T06:23:27;21.70;99.90
52415;DHT22;38340;52.964;6.086;2023-07-08T06:25:53;21.70;99.90
52415;DHT22;38340;52.964;6.086;2023-07-08T06:28:18;21.60;99.90
52415;DHT22;38340;52.964;6.086;2023-07-08T06:30:45;21.70;99.90
52415;DHT22;38340;52.964;6.086;2023-07-08T06:33:11;21.80;99.90
52415;DHT22;38340;52.964;6.086;2023-07-08T06:35:37;21.80;99.90
52415;DHT22;38340;52.964;6.086;2023-07-08T06:38:03;22.00;99.90
52415;DHT22;38340;52.964;6.086;2023-07-08T06:40:29;22.10;99.90
52415;DHT22;38340;52.964;6.086;2023-07-08T06:42:55;22.20;99.90
52415;DHT22;38340;52.964;6.086;2023-07-08T06:45:21;22.30;99.90
52415;DHT22;38340;52.964;6.086;2023-07-08T06:47:47;22.40;99.90
52415;DHT22;38340;52.964;6.086;2023-07-08T06:50:13;22.50;99.90
52415;DHT22;38340;52.964;6.086;2023-07-08T06:52:38;22.50;99.90
52415;DHT22;38340;52.964;6.086;2023-07-08T06:55:07;22.60;99.90
52415;DHT22;38340;52.964;6.086;2023-07-08T06:57:33;22.60;99.90
52415;DHT22;38340;52.964;6.086;2023-07-08T06:59:59;22.70;99.90
52415;DHT22;38340;52.964;6.086;2023-07-08T07:02:26;22.80;99.90
52415;DHT22;38340;52.964;6.086;2023-07-08T07:04:52;22.90;99.90
52415;DHT22;38340;52.964;6.086;2023-07-08T07:07:17;22.90;99.90
52415;DHT22;38340;52.964;6.086;2023-07-08T07:09:43;23.00;99.90
52415;DHT22;38340;52.964;6.086;2023-07-08T07:12:09;23.00;99.90
52415;DHT22;38340;52.964;6.086;2023-07-08T07:14:35;23.10;99.90
52415;DHT22;38340;52.964;6.086;2023-07-08T07:17:00;23.20;99.90
52415;DHT22;38340;52.964;6.086;2023-07-08T07:19:26;23.20;99.90
52415;DHT22;38340;52.964;6.086;2023-07-08T07:21:52;23.30;99.90
52415;DHT22;38340;52.964;6.086;2023-07-08T07:24:17;23.40;99.90
52415;DHT22;38340;52.964;6.086;2023-07-08T07:26:43;23.50;99.90
52415;DHT22;38340;52.964;6.086;2023-07-08T07:29:09;23.70;99.90
52415;DHT22;38340;52.964;6.086;2023-07-08T07:31:35;23.80;99.90
52415;DHT22;38340;52.964;6.086;2023-07-08T07:34:01;24.00;99.90
52415;DHT22;38340;52.964;6.086;2023-07-08T07:36:28;24.00;99.90
52415;DHT22;38340;52.964;6.086;2023-07-08T07:38:54;24.00;99.90
52415;DHT22;38340;52.964;6.086;2023-07-08T07:41:20;24.10;99.90
52415;DHT22;38340;52.964;6.086;2023-07-08T07:43:46;24.20;99.90
52415;DHT22;38340;52.964;6.086;2023-07-08T07:46:12;24.20;99.90
52415;DHT22;38340;52.964;6.086;2023-07-08T07:48:39;24.30;99.90
52415;DHT22;38340;52.964;6.086;2023-07-08T07:51:05;24.50;99.90
52415;DHT22;38340;52.964;6.086;2023-07-08T07:53:31;24.60;99.90
52415;DHT22;38340;52.964;6.086;2023-07-08T07:56:01;24.70;99.90
52415;DHT22;38340;52.964;6.086;2023-07-08T07:58:27;24.80;99.90
52415;DHT22;38340;52.964;6.086;2023-07-08T08:00:53;24.90;99.90
52415;DHT22;38340;52.964;6.086;2023-07-08T08:03:20;25.00;99.90
52415;DHT22;38340;52.964;6.086;2023-07-08T08:05:46;25.10;99.90
52415;DHT22;38340;52.964;6.086;2023-07-08T08:08:12;25.20;99.90
52415;DHT22;38340;52.964;6.086;2023-07-08T08:10:37;25.40;99.90
52415;DHT22;38340;52.964;6.086;2023-07-08T08:13:03;25.50;99.90
52415;DHT22;38340;52.964;6.086;2023-07-08T08:15:30;25.60;99.90
52415;DHT22;38340;52.964;6.086;2023-07-08T08:17:56;25.80;99.90
52415;DHT22;38340;52.964;6.086;2023-07-08T08:20:23;25.90;99.90
52415;DHT22;38340;52.964;6.086;2023-07-08T08:22:50;26.10;99.90
52415;DHT22;38340;52.964;6.086;2023-07-08T08:25:17;26.10;99.20
52415;DHT22;38340;52.964;6.086;2023-07-08T08:27:43;26.20;97.80
52415;DHT22;38340;52.964;6.086;2023-07-08T08:30:10;26.30;99.90
52415;DHT22;38340;52.964;6.086;2023-07-08T08:32:35;26.40;99.90
52415;DHT22;38340;52.964;6.086;2023-07-08T08:35:01;26.60;98.40
52415;DHT22;38340;52.964;6.086;2023-07-08T08:37:27;26.60;96.30
52415;DHT22;38340;52.964;6.086;2023-07-08T08:39:52;26.70;95.00
52415;DHT22;38340;52.964;6.086;2023-07-08T08:42:33;26.80;95.80
52415;DHT22;38340;52.964;6.086;2023-07-08T08:45:00;26.90;92.60
52415;DHT22;38340;52.964;6.086;2023-07-08T08:47:37;26.90;92.20
52415;DHT22;38340;52.964;6.086;2023-07-08T08:50:33;27.00;92.10
52415;DHT22;38340;52.964;6.086;2023-07-08T08:53:02;27.10;93.70
52415;DHT22;38340;52.964;6.086;2023-07-08T08:55:29;27.20;91.60
52415;DHT22;38340;52.964;6.086;2023-07-08T09:00:59;27.50;87.50
52415;DHT22;38340;52.964;6.086;2023-07-08T09:03:37;27.60;85.90
52415;DHT22;38340;52.964;6.086;2023-07-08T09:06:14;27.60;78.30
52415;DHT22;38340;52.964;6.086;2023-07-08T09:08:40;27.60;73.10
52415;DHT22;38340;52.964;6.086;2023-07-08T09:11:21;27.70;71.70
52415;DHT22;38340;52.964;6.086;2023-07-08T09:13:51;27.70;77.90
52415;DHT22;38340;52.964;6.086;2023-07-08T09:19:14;28.10;91.90
52415;DHT22;38340;52.964;6.086;2023-07-08T09:24:40;28.20;80.00
52415;DHT22;38340;52.964;6.086;2023-07-08T09:27:07;28.40;76.70
52415;DHT22;38340;52.964;6.086;2023-07-08T09:29:33;28.30;66.90
52415;DHT22;38340;52.964;6.086;2023-07-08T09:32:15;28.40;57.30
52415;DHT22;38340;52.964;6.086;2023-07-08T09:34:49;28.30;56.40
52415;DHT22;38340;52.964;6.086;2023-07-08T09:39:48;28.40;69.20
52415;DHT22;38340;52.964;6.086;2023-07-08T09:42:15;28.50;57.70
52415;DHT22;38340;52.964;6.086;2023-07-08T09:44:42;28.50;57.70
52415;DHT22;38340;52.964;6.086;2023-07-08T09:47:25;28.50;54.40
52415;DHT22;38340;52.964;6.086;2023-07-08T09:49:52;28.50;68.50
52415;DHT22;38340;52.964;6.086;2023-07-08T09:52:18;28.50;55.90
52415;DHT22;38340;52.964;6.086;2023-07-08T09:54:45;28.70;66.80
52415;DHT22;38340;52.964;6.086;2023-07-08T09:57:24;28.80;56.80
52415;DHT22;38340;52.964;6.086;2023-07-08T09:59:55;28.80;49.00
52415;DHT22;38340;52.964;6.086;2023-07-08T10:02:30;28.80;43.00
52415;DHT22;38340;52.964;6.086;2023-07-08T10:04:59;28.90;58.90
52415;DHT22;38340;52.964;6.086;2023-07-08T10:07:29;29.00;53.50
52415;DHT22;38340;52.964;6.086;2023-07-08T10:09:59;29.10;59.30
52415;DHT22;38340;52.964;6.086;2023-07-08T10:12:25;29.10;46.30
52415;DHT22;38340;52.964;6.086;2023-07-08T10:14:58;29.10;34.30
52415;DHT22;38340;52.964;6.086;2023-07-08T10:17:24;29.10;31.80
52415;DHT22;38340;52.964;6.086;2023-07-08T10:19:51;29.10;43.20
52415;DHT22;38340;52.964;6.086;2023-07-08T10:22:43;29.20;50.80
52415;DHT22;38340;52.964;6.086;2023-07-08T10:25:24;29.40;32.90
52415;DHT22;38340;52.964;6.086;2023-07-08T10:33:47;29.30;18.90
52415;DHT22;38340;52.964;6.086;2023-07-08T10:48:01;29.30;33.60
52415;DHT22;38340;52.964;6.086;2023-07-08T10:50:43;29.30;17.40
52415;DHT22;38340;52.964;6.086;2023-07-08T10:56:12;29.50;14.70
52415;DHT22;38340;52.964;6.086;2023-07-08T10:59:09;29.60;21.00
52415;DHT22;38340;52.964;6.086;2023-07-08T11:07:19;29.90;25.50
52415;DHT22;38340;52.964;6.086;2023-07-08T11:10:00;30.00;26.10
52415;DHT22;38340;52.964;6.086;2023-07-08T11:15:09;30.10;7.90
52415;DHT22;38340;52.964;6.086;2023-07-08T11:18:06;30.10;9.90
52415;DHT22;38340;52.964;6.086;2023-07-08T11:20:59;30.10;16.30
52415;DHT22;38340;52.964;6.086;2023-07-08T11:23:32;30.20;17.80
52415;DHT22;38340;52.964;6.086;2023-07-08T11:28:37;30.30;3.60
52415;DHT22;38340;52.964;6.086;2023-07-08T11:31:04;30.30;7.10
52415;DHT22;38340;52.964;6.086;2023-07-08T11:33:32;30.30;12.80
52415;DHT22;38340;52.964;6.086;2023-07-08T11:35:59;30.50;14.40
52415;DHT22;38340;52.964;6.086;2023-07-08T11:38:25;30.50;8.10
52415;DHT22;38340;52.964;6.086;2023-07-08T11:43:19;30.70;12.80
52415;DHT22;38340;52.964;6.086;2023-07-08T11:45:49;30.80;12.00
52415;DHT22;38340;52.964;6.086;2023-07-08T11:48:19;30.80;2.50
52415;DHT22;38340;52.964;6.086;2023-07-08T11:50:47;30.80;5.90
52415;DHT22;38340;52.964;6.086;2023-07-08T11:53:35;30.90;4.30
52415;DHT22;38340;52.964;6.086;2023-07-08T11:56:18;30.90;3.80
52415;DHT22;38340;52.964;6.086;2023-07-08T12:01:40;31.10;7.80
52415;DHT22;38340;52.964;6.086;2023-07-08T12:04:24;31.20;1.00
52415;DHT22;38340;52.964;6.086;2023-07-08T12:07:02;31.30;1.00
52415;DHT22;38340;52.964;6.086;2023-07-08T12:09:31;31.40;1.00
52415;DHT22;38340;52.964;6.086;2023-07-08T12:12:03;31.50;1.00
52415;DHT22;38340;52.964;6.086;2023-07-08T12:14:31;31.50;1.00
52415;DHT22;38340;52.964;6.086;2023-07-08T12:16:58;31.50;1.00
52415;DHT22;38340;52.964;6.086;2023-07-08T12:19:25;31.50;1.00
52415;DHT22;38340;52.964;6.086;2023-07-08T12:21:52;31.60;1.00
52415;DHT22;38340;52.964;6.086;2023-07-08T12:24:18;31.60;1.00
52415;DHT22;38340;52.964;6.086;2023-07-08T12:26:50;31.60;1.00
52415;DHT22;38340;52.964;6.086;2023-07-08T12:29:16;31.60;1.00
52415;DHT22;38340;52.964;6.086;2023-07-08T12:31:42;31.60;1.00
52415;DHT22;38340;52.964;6.086;2023-07-08T12:34:17;31.70;1.00
52415;DHT22;38340;52.964;6.086;2023-07-08T12:36:44;31.70;1.00
52415;DHT22;38340;52.964;6.086;2023-07-08T12:39:15;31.80;1.00
52415;DHT22;38340;52.964;6.086;2023-07-08T12:41:43;31.90;1.00
52415;DHT22;38340;52.964;6.086;2023-07-08T12:44:35;32.00;1.00
52415;DHT22;38340;52.964;6.086;2023-07-08T12:47:06;32.10;1.00
52415;DHT22;38340;52.964;6.086;2023-07-08T12:49:32;32.10;1.00
52415;DHT22;38340;52.964;6.086;2023-07-08T12:51:59;32.20;1.00
52415;DHT22;38340;52.964;6.086;2023-07-08T12:54:27;32.20;1.00
52415;DHT22;38340;52.964;6.086;2023-07-08T12:56:54;32.10;1.00
52415;DHT22;38340;52.964;6.086;2023-07-08T12:59:22;32.20;1.00
52415;DHT22;38340;52.964;6.086;2023-07-08T13:01:49;32.20;1.00
52415;DHT22;38340;52.964;6.086;2023-07-08T13:04:15;32.30;1.00
52415;DHT22;38340;52.964;6.086;2023-07-08T13:06:44;32.30;1.00
52415;DHT22;38340;52.964;6.086;2023-07-08T13:12:04;32.50;1.00
52415;DHT22;38340;52.964;6.086;2023-07-08T13:14:31;32.60;1.00
52415;DHT22;38340;52.964;6.086;2023-07-08T13:16:57;32.60;1.00
52415;DHT22;38340;52.964;6.086;2023-07-08T13:19:23;32.70;1.00
52415;DHT22;38340;52.964;6.086;2023-07-08T13:21:50;32.70;1.00
52415;DHT22;38340;52.964;6.086;2023-07-08T13:24:16;32.70;1.00
52415;DHT22;38340;52.964;6.086;2023-07-08T13:26:46;32.80;1.00
52415;DHT22;38340;52.964;6.086;2023-07-08T13:29:15;32.80;1.00
52415;DHT22;38340;52.964;6.086;2023-07-08T13:31:53;32.90;1.00
52415;DHT22;38340;52.964;6.086;2023-07-08T13:34:20;32.90;1.00
52415;DHT22;38340;52.964;6.086;2023-07-08T13:36:50;32.90;1.00
52415;DHT22;38340;52.964;6.086;2023-07-08T13:39:21;32.90;1.00
52415;DHT22;38340;52.964;6.086;2023-07-08T13:41:48;32.90;1.00
52415;DHT22;38340;52.964;6.086;2023-07-08T13:44:13;33.00;1.00
52415;DHT22;38340;52.964;6.086;2023-07-08T13:46:45;33.00;1.00
52415;DHT22;38340;52.964;6.086;2023-07-08T13:54:45;33.20;1.00
52415;DHT22;38340;52.964;6.086;2023-07-08T13:57:15;33.20;1.00
52415;DHT22;38340;52.964;6.086;2023-07-08T13:59:41;33.20;1.00
52415;DHT22;38340;52.964;6.086;2023-07-08T14:02:19;33.20;1.00
52415;DHT22;38340;52.964;6.086;2023-07-08T14:04:49;33.30;1.00
52415;DHT22;38340;52.964;6.086;2023-07-08T14:07:22;33.20;1.00
52415;DHT22;38340;52.964;6.086;2023-07-08T14:09:48;33.30;1.00
52415;DHT22;38340;52.964;6.086;2023-07-08T14:12:14;33.30;1.00
52415;DHT22;38340;52.964;6.086;2023-07-08T14:14:39;33.40;1.00
52415;DHT22;38340;52.964;6.086;2023-07-08T14:17:09;33.40;1.00
52415;DHT22;38340;52.964;6.086;2023-07-08T14:19:36;33.40;1.00
52415;DHT22;38340;52.964;6.086;2023-07-08T14:24:37;33.30;1.00
52415;DHT22;38340;52.964;6.086;2023-07-08T14:27:03;33.20;1.00
52415;DHT22;38340;52.964;6.086;2023-07-08T14:29:28;33.20;1.00
52415;DHT22;38340;52.964;6.086;2023-07-08T14:31:54;33.20;1.00
52415;DHT22;38340;52.964;6.086;2023-07-08T14:34:25;33.30;1.00
52415;DHT22;38340;52.964;6.086;2023-07-08T14:36:51;33.40;1.00
52415;DHT22;38340;52.964;6.086;2023-07-08T14:39:18;33.40;1.00
52415;DHT22;38340;52.964;6.086;2023-07-08T14:41:45;33.40;1.00
52415;DHT22;38340;52.964;6.086;2023-07-08T14:44:23;33.40;1.00
52415;DHT22;38340;52.964;6.086;2023-07-08T14:46:50;33.40;1.00
52415;DHT22;38340;52.964;6.086;2023-07-08T14:49:18;33.40;1.00
52415;DHT22;38340;52.964;6.086;2023-07-08T14:51:44;33.40;1.00
52415;DHT22;38340;52.964;6.086;2023-07-08T14:54:09;33.50;1.00
52415;DHT22;38340;52.964;6.086;2023-07-08T14:56:35;33.50;1.00
52415;DHT22;38340;52.964;6.086;2023-07-08T14:59:01;33.50;1.00
52415;DHT22;38340;52.964;6.086;2023-07-08T15:01:28;33.50;1.00
52415;DHT22;38340;52.964;6.086;2023-07-08T15:03:56;33.50;1.00
52415;DHT22;38340;52.964;6.086;2023-07-08T15:06:22;33.40;1.00
52415;DHT22;38340;52.964;6.086;2023-07-08T15:08:48;33.40;1.00
52415;DHT22;38340;52.964;6.086;2023-07-08T15:11:14;33.30;1.00
52415;DHT22;38340;52.964;6.086;2023-07-08T15:13:41;33.30;1.00
52415;DHT22;38340;52.964;6.086;2023-07-08T15:16:15;33.20;1.00
52415;DHT22;38340;52.964;6.086;2023-07-08T15:18:42;33.20;1.00
52415;DHT22;38340;52.964;6.086;2023-07-08T15:21:15;33.20;1.00
52415;DHT22;38340;52.964;6.086;2023-07-08T15:23:41;33.20;1.00
52415;DHT22;38340;52.964;6.086;2023-07-08T15:26:10;33.20;1.00
52415;DHT22;38340;52.964;6.086;2023-07-08T15:31:02;33.40;1.00
52415;DHT22;38340;52.964;6.086;2023-07-08T15:33:28;33.60;1.00
52415;DHT22;38340;52.964;6.086;2023-07-08T15:35:54;33.70;1.00
52415;DHT22;38340;52.964;6.086;2023-07-08T15:38:20;33.70;1.00
52415;DHT22;38340;52.964;6.086;2023-07-08T15:40:45;33.80;1.00
52415;DHT22;38340;52.964;6.086;2023-07-08T15:43:15;33.90;1.00
52415;DHT22;38340;52.964;6.086;2023-07-08T15:45:41;34.00;1.00
52415;DHT22;38340;52.964;6.086;2023-07-08T15:48:15;34.10;1.00
52415;DHT22;38340;52.964;6.086;2023-07-08T15:50:41;34.10;1.00
52415;DHT22;38340;52.964;6.086;2023-07-08T15:53:07;34.30;1.00
52415;DHT22;38340;52.964;6.086;2023-07-08T15:55:42;34.40;1.00
52415;DHT22;38340;52.964;6.086;2023-07-08T16:00:40;34.70;1.00
52415;DHT22;38340;52.964;6.086;2023-07-08T16:03:13;34.70;1.00
52415;DHT22;38340;52.964;6.086;2023-07-08T16:05:42;34.80;1.00
52415;DHT22;38340;52.964;6.086;2023-07-08T16:08:09;34.70;1.00
52415;DHT22;38340;52.964;6.086;2023-07-08T16:10:35;34.80;1.00
52415;DHT22;38340;52.964;6.086;2023-07-08T16:13:02;34.90;1.00
52415;DHT22;38340;52.964;6.086;2023-07-08T16:15:35;35.10;1.00
52415;DHT22;38340;52.964;6.086;2023-07-08T16:18:02;35.30;1.00
52415;DHT22;38340;52.964;6.086;2023-07-08T16:20:31;35.40;1.00
52415;DHT22;38340;52.964;6.086;2023-07-08T16:22:58;35.50;1.00
52415;DHT22;38340;52.964;6.086;2023-07-08T16:25:31;35.40;1.00
52415;DHT22;38340;52.964;6.086;2023-07-08T16:27:58;35.20;1.00
52415;DHT22;38340;52.964;6.086;2023-07-08T16:30:26;35.10;1.00
52415;DHT22;38340;52.964;6.086;2023-07-08T16:32:52;35.00;1.00
52415;DHT22;38340;52.964;6.086;2023-07-08T16:35:19;34.80;1.00
52415;DHT22;38340;52.964;6.086;2023-07-08T16:37:50;34.60;1.00
52415;DHT22;38340;52.964;6.086;2023-07-08T16:40:22;34.40;1.00
52415;DHT22;38340;52.964;6.086;2023-07-08T16:42:51;34.20;1.00
52415;DHT22;38340;52.964;6.086;2023-07-08T16:45:19;34.00;1.00
52415;DHT22;38340;52.964;6.086;2023-07-08T16:47:46;33.80;1.00
52415;DHT22;38340;52.964;6.086;2023-07-08T16:50:13;34.00;1.00
52415;DHT22;38340;52.964;6.086;2023-07-08T16:52:39;34.30;1.00
52415;DHT22;38340;52.964;6.086;2023-07-08T16:55:16;34.60;1.00